sensor_id;sensor_type;location;lat;lon;timestamp;pressure;altitude;pressure_sealevel;temperature;humidity
50696;BME280;36665;51.786;21.594;2022-09-30T00:04:18;92081.36;;;3.51;74.63
50696;BME280;36665;51.786;21.594;2022-09-30T00:12:42;92051.56;;;3.43;74.58
50696;BME280;36665;51.786;21.594;2022-09-30T00:21:06;92023.61;;;3.34;74.63
50696;BME280;36665;51.786;21.594;2022-09-30T00:29:30;92019.19;;;3.34;74.53
50696;BME280;36665;51.786;21.594;2022-09-30T00:37:53;92000.55;;;3.28;74.49
50696;BME280;36665;51.786;21.594;2022-09-30T00:54:54;91995.19;;;3.27;74.51
50696;BME280;36665;51.786;21.594;2022-09-30T01:03:20;91964.02;;;3.19;74.60
50696;BME280;36665;51.786;21.594;2022-09-30T01:11:45;91958.50;;;3.17;74.56
50696;BME280;36665;51.786;21.594;2022-09-30T01:46:31;91908.15;;;3.04;74.60
50696;BME280;36665;51.786;21.594;2022-09-30T02:03:38;91917.94;;;3.07;74.80
50696;BME280;36665;51.786;21.594;2022-09-30T02:12:06;91941.39;;;3.12;74.74
50696;BME280;36665;51.786;21.594;2022-09-30T02:20:34;91942.39;;;3.13;74.66
50696;BME280;36665;51.786;21.594;2022-09-30T02:29:10;91885.42;;;2.97;74.66
50696;BME280;36665;51.786;21.594;2022-09-30T02:37:39;91873.92;;;2.95;74.70
50696;BME280;36665;51.786;21.594;2022-09-30T03:03:55;91909.94;;;3.05;74.80
50696;BME280;36665;51.786;21.594;2022-09-30T03:12:38;91905.35;;;3.03;74.98
50696;BME280;36665;51.786;21.594;2022-09-30T03:46:52;91910.97;;;3.05;74.86
50696;BME280;36665;51.786;21.594;2022-09-30T03:55:17;91930.30;;;3.09;74.77
50696;BME280;36665;51.786;21.594;2022-09-30T04:03:41;91912.79;;;3.05;74.80
50696;BME280;36665;51.786;21.594;2022-09-30T04:12:05;91907.15;;;3.03;74.84
50696;BME280;36665;51.786;21.594;2022-09-30T04:20:29;91900.52;;;3.02;74.93
50696;BME280;36665;51.786;21.594;2022-09-30T04:28:52;91888.23;;;2.99;75.04
50696;BME280;36665;51.786;21.594;2022-09-30T04:37:19;91909.61;;;3.05;74.87
50696;BME280;36665;51.786;21.594;2022-09-30T04:45:43;91929.95;;;3.10;74.93
50696;BME280;36665;51.786;21.594;2022-09-30T04:54:07;91950.86;;;3.15;75.09
50696;BME280;36665;51.786;21.594;2022-09-30T05:02:30;91995.25;;;3.28;74.97
50696;BME280;36665;51.786;21.594;2022-09-30T05:10:59;92056.20;;;3.44;75.16
50696;BME280;36665;51.786;21.594;2022-09-30T05:19:22;92116.34;;;3.60;75.28
50696;BME280;36665;51.786;21.594;2022-09-30T05:27:48;92187.07;;;3.79;75.23
50696;BME280;36665;51.786;21.594;2022-09-30T05:36:14;92248.86;;;3.95;75.37
50696;BME280;36665;51.786;21.594;2022-09-30T05:44:37;92299.24;;;4.10;75.44
50696;BME280;36665;51.786;21.594;2022-09-30T05:53:01;92383.20;;;4.31;75.70
50696;BME280;36665;51.786;21.594;2022-09-30T06:01:25;92477.63;;;4.56;75.82
50696;BME280;36665;51.786;21.594;2022-09-30T06:09:48;92638.58;;;4.99;75.95
50696;BME280;36665;51.786;21.594;2022-09-30T06:18:11;92825.95;;;5.48;76.01
50696;BME280;36665;51.786;21.594;2022-09-30T06:26:41;92923.05;;;5.73;76.21
50696;BME280;36665;51.786;21.594;2022-09-30T06:35:06;93017.23;;;5.98;76.37
50696;BME280;36665;51.786;21.594;2022-09-30T06:43:34;93177.89;;;6.41;76.62
50696;BME280;36665;51.786;21.594;2022-09-30T06:52:08;93410.31;;;7.01;76.54
50696;BME280;36665;51.786;21.594;2022-09-30T07:00:33;93638.90;;;7.60;77.01
50696;BME280;36665;51.786;21.594;2022-09-30T07:08:56;93767.05;;;7.92;77.31
50696;BME280;36665;51.786;21.594;2022-09-30T07:17:20;93887.83;;;8.22;77.31
50696;BME280;36665;51.786;21.594;2022-09-30T07:25:52;94034.54;;;8.61;77.28
50696;BME280;36665;51.786;21.594;2022-09-30T07:34:18;94200.71;;;9.02;77.46
50696;BME280;36665;51.786;21.594;2022-09-30T07:42:41;94321.19;;;9.33;77.79
50696;BME280;36665;51.786;21.594;2022-09-30T07:51:15;94505.07;;;9.80;77.85
50696;BME280;36665;51.786;21.594;2022-09-30T07:59:41;94661.98;;;10.19;77.89
50696;BME280;36665;51.786;21.594;2022-09-30T08:08:04;94764.58;;;10.44;77.94
50696;BME280;36665;51.786;21.594;2022-09-30T08:16:29;94915.84;;;10.80;78.14
50696;BME280;36665;51.786;21.594;2022-09-30T08:24:52;94982.95;;;10.96;77.96
50696;BME280;36665;51.786;21.594;2022-09-30T08:33:15;95013.70;;;11.05;78.27
50696;BME280;36665;51.786;21.594;2022-09-30T08:41:48;95053.67;;;11.14;78.28
50696;BME280;36665;51.786;21.594;2022-09-30T08:58:44;95374.23;;;11.95;78.41
50696;BME280;36665;51.786;21.594;2022-09-30T09:16:02;95380.30;;;11.95;78.09
50696;BME280;36665;51.786;21.594;2022-09-30T09:24:32;95382.45;;;11.96;78.22
50696;BME280;36665;51.786;21.594;2022-09-30T09:33:09;95399.73;;;12.01;78.24
50696;BME280;36665;51.786;21.594;2022-09-30T09:50:16;95420.30;;;12.06;78.00
50696;BME280;36665;51.786;21.594;2022-09-30T09:59:08;95392.77;;;11.98;77.94
50696;BME280;36665;51.786;21.594;2022-09-30T10:07:33;95311.91;;;11.77;77.97
50696;BME280;36665;51.786;21.594;2022-09-30T10:15:58;95257.86;;;11.64;78.01
50696;BME280;36665;51.786;21.594;2022-09-30T10:24:30;95243.89;;;11.61;77.77
50696;BME280;36665;51.786;21.594;2022-09-30T10:32:53;95266.83;;;11.67;77.56
50696;BME280;36665;51.786;21.594;2022-09-30T10:41:21;95252.73;;;11.63;77.72
50696;BME280;36665;51.786;21.594;2022-09-30T10:58:42;95122.64;;;11.30;77.55
50696;BME280;36665;51.786;21.594;2022-09-30T11:24:44;95050.13;;;11.13;77.35
50696;BME280;36665;51.786;21.594;2022-09-30T11:41:44;95056.82;;;11.16;77.36
50696;BME280;36665;51.786;21.594;2022-09-30T11:58:49;94979.92;;;10.96;77.03
50696;BME280;36665;51.786;21.594;2022-09-30T12:07:17;94938.98;;;10.86;77.06
50696;BME280;36665;51.786;21.594;2022-09-30T12:15:44;94911.95;;;10.79;77.11
50696;BME280;36665;51.786;21.594;2022-09-30T12:33:14;94812.45;;;10.54;77.07
50696;BME280;36665;51.786;21.594;2022-09-30T12:50:27;94743.34;;;10.38;76.89
50696;BME280;36665;51.786;21.594;2022-09-30T12:58:52;94722.94;;;10.32;76.84
50696;BME280;36665;51.786;21.594;2022-09-30T13:07:20;94695.16;;;10.24;76.93
50696;BME280;36665;51.786;21.594;2022-09-30T13:15:45;94701.15;;;10.27;76.87
50696;BME280;36665;51.786;21.594;2022-09-30T13:24:08;94674.58;;;10.20;76.82
50696;BME280;36665;51.786;21.594;2022-09-30T13:32:37;94645.38;;;10.13;76.88
50696;BME280;36665;51.786;21.594;2022-09-30T13:41:18;94625.70;;;10.08;76.93
50696;BME280;36665;51.786;21.594;2022-09-30T13:49:51;94607.05;;;10.04;76.95
50696;BME280;36665;51.786;21.594;2022-09-30T14:24:40;94561.98;;;9.91;76.78
50696;BME280;36665;51.786;21.594;2022-09-30T14:33:23;94576.52;;;9.95;76.89
50696;BME280;36665;51.786;21.594;2022-09-30T14:41:53;94562.86;;;9.91;76.87
50696;BME280;36665;51.786;21.594;2022-09-30T14:50:23;94524.61;;;9.81;76.97
50696;BME280;36665;51.786;21.594;2022-09-30T14:58:48;94498.69;;;9.75;76.94
50696;BME280;36665;51.786;21.594;2022-09-30T15:07:14;94517.69;;;9.79;76.87
50696;BME280;36665;51.786;21.594;2022-09-30T15:15:37;94535.63;;;9.85;76.93
50696;BME280;36665;51.786;21.594;2022-09-30T15:24:02;94530.80;;;9.83;77.16
50696;BME280;36665;51.786;21.594;2022-09-30T15:32:27;94555.43;;;9.88;77.07
50696;BME280;36665;51.786;21.594;2022-09-30T15:41:09;94561.63;;;9.90;77.10
50696;BME280;36665;51.786;21.594;2022-09-30T15:58:02;94514.66;;;9.78;77.00
50696;BME280;36665;51.786;21.594;2022-09-30T16:06:30;94516.00;;;9.79;77.00
50696;BME280;36665;51.786;21.594;2022-09-30T16:15:11;94478.70;;;9.70;76.96
50696;BME280;36665;51.786;21.594;2022-09-30T16:23:37;94430.86;;;9.57;76.87
50696;BME280;36665;51.786;21.594;2022-09-30T16:32:01;94412.17;;;9.52;77.00
50696;BME280;36665;51.786;21.594;2022-09-30T16:40:26;94435.92;;;9.58;77.14
50696;BME280;36665;51.786;21.594;2022-09-30T16:48:50;94458.48;;;9.64;77.07
50696;BME280;36665;51.786;21.594;2022-09-30T16:57:13;94470.68;;;9.66;77.16
50696;BME280;36665;51.786;21.594;2022-09-30T17:05:38;94441.02;;;9.59;77.19
50696;BME280;36665;51.786;21.594;2022-09-30T17:14:03;94423.94;;;9.55;77.16
50696;BME280;36665;51.786;21.594;2022-09-30T17:22:26;94419.22;;;9.53;77.10
50696;BME280;36665;51.786;21.594;2022-09-30T17:30:49;94404.13;;;9.49;77.26
50696;BME280;36665;51.786;21.594;2022-09-30T17:39:15;94379.57;;;9.43;77.12
50696;BME280;36665;51.786;21.594;2022-09-30T17:47:38;94365.89;;;9.39;77.35
50696;BME280;36665;51.786;21.594;2022-09-30T17:56:06;94368.84;;;9.40;77.39
50696;BME280;36665;51.786;21.594;2022-09-30T18:04:32;94378.61;;;9.42;77.26
50696;BME280;36665;51.786;21.594;2022-09-30T18:12:57;94374.02;;;9.41;77.29
50696;BME280;36665;51.786;21.594;2022-09-30T18:21:21;94360.73;;;9.38;77.37
50696;BME280;36665;51.786;21.594;2022-09-30T18:29:44;94380.23;;;9.42;77.42
50696;BME280;36665;51.786;21.594;2022-09-30T18:38:07;94399.01;;;9.46;77.39
50696;BME280;36665;51.786;21.594;2022-09-30T18:46:32;94393.48;;;9.45;77.44
50696;BME280;36665;51.786;21.594;2022-09-30T18:54:55;94362.83;;;9.38;77.26
50696;BME280;36665;51.786;21.594;2022-09-30T19:03:18;94340.83;;;9.31;77.23
50696;BME280;36665;51.786;21.594;2022-09-30T19:11:41;94350.72;;;9.34;77.37
50696;BME280;36665;51.786;21.594;2022-09-30T19:20:06;94356.42;;;9.36;77.54
50696;BME280;36665;51.786;21.594;2022-09-30T19:28:30;94359.89;;;9.36;77.30
50696;BME280;36665;51.786;21.594;2022-09-30T19:36:53;94342.38;;;9.31;77.38
50696;BME280;36665;51.786;21.594;2022-09-30T19:45:20;94361.30;;;9.36;77.53
50696;BME280;36665;51.786;21.594;2022-09-30T19:53:48;94397.20;;;9.45;77.68
50696;BME280;36665;51.786;21.594;2022-09-30T20:02:27;94412.08;;;9.49;77.73
50696;BME280;36665;51.786;21.594;2022-09-30T20:10:51;94410.19;;;9.48;77.57
50696;BME280;36665;51.786;21.594;2022-09-30T20:19:15;94420.00;;;9.51;77.81
50696;BME280;36665;51.786;21.594;2022-09-30T20:27:39;94430.14;;;9.54;77.66
50696;BME280;36665;51.786;21.594;2022-09-30T20:36:09;94408.27;;;9.47;77.73
50696;BME280;36665;51.786;21.594;2022-09-30T20:44:32;94404.57;;;9.46;77.73
50696;BME280;36665;51.786;21.594;2022-09-30T20:52:55;94426.80;;;9.52;77.87
50696;BME280;36665;51.786;21.594;2022-09-30T21:01:20;94454.23;;;9.58;77.75
50696;BME280;36665;51.786;21.594;2022-09-30T21:09:43;94465.05;;;9.61;77.96
50696;BME280;36665;51.786;21.594;2022-09-30T21:18:07;94464.36;;;9.61;77.79
50696;BME280;36665;51.786;21.594;2022-09-30T21:26:30;94469.19;;;9.62;77.81
50696;BME280;36665;51.786;21.594;2022-09-30T21:34:53;94471.57;;;9.62;77.97
50696;BME280;36665;51.786;21.594;2022-09-30T21:43:18;94457.98;;;9.59;77.92
50696;BME280;36665;51.786;21.594;2022-09-30T21:51:41;94474.66;;;9.63;77.84
50696;BME280;36665;51.786;21.594;2022-09-30T22:00:04;94495.14;;;9.68;77.97
50696;BME280;36665;51.786;21.594;2022-09-30T22:08:37;94485.98;;;9.65;77.97
50696;BME280;36665;51.786;21.594;2022-09-30T22:17:03;94478.98;;;9.64;78.03
50696;BME280;36665;51.786;21.594;2022-09-30T22:25:31;94487.04;;;9.65;78.14
50696;BME280;36665;51.786;21.594;2022-09-30T22:33:57;94471.47;;;9.61;78.00
50696;BME280;36665;51.786;21.594;2022-09-30T22:42:39;94466.77;;;9.60;78.11
50696;BME280;36665;51.786;21.594;2022-09-30T22:51:02;94472.73;;;9.62;78.10
50696;BME280;36665;51.786;21.594;2022-09-30T22:59:28;94470.83;;;9.61;78.31
50696;BME280;36665;51.786;21.594;2022-09-30T23:07:53;94463.60;;;9.59;78.19
50696;BME280;36665;51.786;21.594;2022-09-30T23:16:18;94468.01;;;9.60;78.06
50696;BME280;36665;51.786;21.594;2022-09-30T23:24:41;94448.23;;;9.55;78.21
50696;BME280;36665;51.786;21.594;2022-09-30T23:33:08;94437.20;;;9.53;78.35
50696;BME280;36665;51.786;21.594;2022-09-30T23:41:31;94440.83;;;9.53;78.21
50696;BME280;36665;51.786;21.594;2022-09-30T23:49:54;94460.30;;;9.58;78.25
50696;BME280;36665;51.786;21.594;2022-09-30T23:58:17;94452.64;;;9.56;78.19
